TAF KGGW
KGGW 072320Z 0800/0824 VRB06KT P6SM BKN100 FM080600 VRB06KT 6SM BR OVC100 FM081200 11008KT P6SM OVC100 FM081500 14009KT P6SM BKN090 WS020/25035KT FM082100 22013G22KT P6SM BKN100=
METAR KGGW
WC KGGW
WS KGGW
WV KGGW